createdAt,value
2018-03-14T00:00:28.995Z,6.80
2018-03-14T00:02:56.445Z,6.80
2018-03-14T00:05:24.409Z,6.80
2018-03-14T00:07:51.881Z,6.80
2018-03-14T00:10:19.511Z,6.90
2018-03-14T00:12:47.511Z,6.90
2018-03-14T00:15:15.559Z,6.90
2018-03-14T00:17:43.025Z,6.90
2018-03-14T00:20:10.901Z,6.80
2018-03-14T00:22:38.410Z,6.80
2018-03-14T00:25:05.845Z,6.80
2018-03-14T00:27:34.108Z,6.80
2018-03-14T00:30:03.107Z,6.80
2018-03-14T00:32:31.372Z,6.80
2018-03-14T00:34:59.164Z,6.80
2018-03-14T00:37:29.222Z,6.90
2018-03-14T00:39:57.317Z,6.80
2018-03-14T00:42:25.198Z,6.80
2018-03-14T00:44:52.907Z,6.80
2018-03-14T00:47:21.792Z,6.80
2018-03-14T00:49:49.458Z,6.80
2018-03-14T00:52:17.056Z,6.80
2018-03-14T00:54:45.117Z,6.70
2018-03-14T00:57:12.977Z,6.70
2018-03-14T00:59:40.436Z,6.70
2018-03-14T01:02:10.569Z,6.60
2018-03-14T01:04:40.053Z,6.50
2018-03-14T01:07:09.018Z,6.60
2018-03-14T01:09:38.813Z,6.60
2018-03-14T01:12:07.635Z,6.60
2018-03-14T01:14:36.969Z,6.60
2018-03-14T01:17:06.082Z,6.60
2018-03-14T01:19:35.310Z,6.70
2018-03-14T01:22:03.011Z,6.60
2018-03-14T01:24:32.128Z,6.70
2018-03-14T01:27:00.774Z,6.70
2018-03-14T01:29:28.311Z,6.70
2018-03-14T01:31:55.763Z,6.80
2018-03-14T01:34:23.977Z,6.80
2018-03-14T01:36:51.850Z,6.80
2018-03-14T01:39:19.817Z,6.80
2018-03-14T01:41:48.051Z,6.80
2018-03-14T01:44:15.512Z,6.80
2018-03-14T01:46:43.087Z,6.80
2018-03-14T01:49:10.948Z,6.80
2018-03-14T01:51:38.452Z,6.80
2018-03-14T01:54:06.236Z,6.70
2018-03-14T01:56:34.078Z,6.80
2018-03-14T01:59:01.933Z,6.80
2018-03-14T02:01:29.369Z,6.70
2018-03-14T02:03:57.419Z,6.70
2018-03-14T02:06:25.127Z,6.70
2018-03-14T02:08:52.605Z,6.60
2018-03-14T02:11:20.854Z,6.50
2018-03-14T02:13:48.410Z,6.50
2018-03-14T02:16:17.020Z,6.40
2018-03-14T02:18:45.238Z,6.50
2018-03-14T02:21:12.708Z,6.50
2018-03-14T02:23:40.242Z,6.50
2018-03-14T02:26:07.700Z,6.50
2018-03-14T02:28:36.233Z,6.50
2018-03-14T02:31:04.795Z,6.50
2018-03-14T02:33:32.240Z,6.50
2018-03-14T02:36:00.023Z,6.50
2018-03-14T02:38:27.461Z,6.60
2018-03-14T02:40:55.216Z,6.60
2018-03-14T02:43:23.103Z,6.60
2018-03-14T02:45:50.581Z,6.60
2018-03-14T02:48:18.051Z,6.60
2018-03-14T02:50:46.491Z,6.70
2018-03-14T02:53:14.157Z,6.60
2018-03-14T02:55:42.156Z,6.70
2018-03-14T02:58:10.433Z,6.70
2018-03-14T03:00:39.086Z,6.70
2018-03-14T03:03:07.057Z,6.70
2018-03-14T03:05:34.823Z,6.70
2018-03-14T03:08:02.276Z,6.70
2018-03-14T03:10:29.777Z,6.70
2018-03-14T03:12:58.208Z,6.70
2018-03-14T03:15:25.669Z,6.70
2018-03-14T03:17:53.380Z,6.70
2018-03-14T03:20:20.831Z,6.70
2018-03-14T03:22:49.068Z,6.70
2018-03-14T03:25:16.541Z,6.70
2018-03-14T03:27:44.257Z,6.80
2018-03-14T03:30:11.690Z,6.80
2018-03-14T03:32:39.396Z,6.80
2018-03-14T03:35:07.178Z,6.80
2018-03-14T03:37:34.640Z,6.80
2018-03-14T03:40:02.497Z,6.70
2018-03-14T03:42:29.933Z,6.60
2018-03-14T03:44:57.396Z,6.60
2018-03-14T03:47:24.858Z,6.60
2018-03-14T03:49:52.321Z,6.50
2018-03-14T03:52:20.638Z,6.50
2018-03-14T03:54:48.258Z,6.50
2018-03-14T03:57:16.670Z,6.50
2018-03-14T03:59:44.876Z,6.60
2018-03-14T04:02:12.550Z,6.60
2018-03-14T04:04:40.086Z,6.60
2018-03-14T04:07:08.244Z,6.60
2018-03-14T04:09:35.704Z,6.60
2018-03-14T04:12:03.146Z,6.60
2018-03-14T04:14:32.614Z,6.60
2018-03-14T04:17:00.474Z,6.60
2018-03-14T04:19:28.238Z,6.60
2018-03-14T04:21:55.749Z,6.50
2018-03-14T04:24:23.209Z,6.60
2018-03-14T04:26:50.646Z,6.50
2018-03-14T04:29:19.217Z,6.50
2018-03-14T04:31:47.414Z,6.50
2018-03-14T04:34:14.950Z,6.50
2018-03-14T04:36:43.513Z,6.50
2018-03-14T04:39:11.442Z,6.50
2018-03-14T04:41:39.342Z,6.50
2018-03-14T04:44:06.789Z,6.50
2018-03-14T04:46:34.854Z,6.50
2018-03-14T04:49:03.022Z,6.60
2018-03-14T04:51:30.704Z,6.60
2018-03-14T04:53:58.170Z,6.60
2018-03-14T04:56:25.908Z,6.70
2018-03-14T04:58:53.796Z,6.70
2018-03-14T05:01:21.228Z,6.70
2018-03-14T05:03:48.732Z,6.70
2018-03-14T05:06:16.264Z,6.70
2018-03-14T05:08:43.705Z,6.70
2018-03-14T05:11:11.287Z,6.60
2018-03-14T05:13:39.052Z,6.60
2018-03-14T05:16:06.482Z,6.60
2018-03-14T05:18:34.468Z,6.60
2018-03-14T05:21:01.937Z,6.60
2018-03-14T05:23:29.373Z,6.60
2018-03-14T05:25:56.897Z,6.60
2018-03-14T05:28:24.352Z,6.60
2018-03-14T05:30:52.764Z,6.60
2018-03-14T05:33:20.561Z,6.70
2018-03-14T05:35:48.624Z,6.70
2018-03-14T05:38:16.578Z,6.70
2018-03-14T05:40:44.475Z,6.70
2018-03-14T05:43:12.408Z,6.70
2018-03-14T05:45:39.968Z,6.70
2018-03-14T05:48:07.417Z,6.70
2018-03-14T05:50:35.089Z,6.80
2018-03-14T05:53:02.553Z,6.80
2018-03-14T05:55:30.477Z,6.80
2018-03-14T05:57:57.923Z,6.80
2018-03-14T06:00:25.376Z,6.80
2018-03-14T06:02:52.849Z,6.80
2018-03-14T06:05:21.231Z,6.80
2018-03-14T06:07:48.696Z,6.80
2018-03-14T06:10:16.246Z,6.80
2018-03-14T06:12:44.461Z,6.80
2018-03-14T06:15:11.897Z,6.80
2018-03-14T06:17:39.890Z,6.80
2018-03-14T06:20:07.328Z,6.80
2018-03-14T06:22:34.831Z,6.80
2018-03-14T06:25:02.268Z,6.80
2018-03-14T06:27:29.914Z,6.80
2018-03-14T06:29:57.869Z,6.80
2018-03-14T06:32:25.539Z,6.80
2018-03-14T06:34:54.043Z,6.80
2018-03-14T06:37:21.475Z,6.80
2018-03-14T06:39:50.144Z,6.80
2018-03-14T06:42:18.011Z,6.80
2018-03-14T06:44:45.457Z,6.80
2018-03-14T06:47:12.998Z,6.90
2018-03-14T06:49:41.006Z,6.90
2018-03-14T06:52:08.465Z,6.90
2018-03-14T06:54:36.225Z,6.90
2018-03-14T06:57:03.991Z,6.90
2018-03-14T06:59:43.428Z,6.90
2018-03-14T07:02:22.856Z,6.90
2018-03-14T07:05:00.150Z,6.80
2018-03-14T07:07:27.625Z,6.80
2018-03-14T07:09:55.074Z,6.90
2018-03-14T07:12:22.721Z,6.90
2018-03-14T07:14:50.193Z,6.90
2018-03-14T07:17:18.254Z,7.00
2018-03-14T07:19:45.752Z,7.00
2018-03-14T07:22:13.984Z,7.10
2018-03-14T07:24:41.524Z,7.10
2018-03-14T07:27:09.056Z,7.10
2018-03-14T07:29:37.066Z,7.10
2018-03-14T07:32:05.139Z,7.10
2018-03-14T07:34:33.220Z,7.20
2018-03-14T07:37:00.668Z,7.10
2018-03-14T07:39:28.139Z,7.10
2018-03-14T07:41:55.955Z,7.20
2018-03-14T07:44:23.397Z,7.20
2018-03-14T07:46:50.974Z,7.30
2018-03-14T07:49:18.409Z,7.30
2018-03-14T07:51:46.430Z,7.40
2018-03-14T07:54:13.985Z,7.40
2018-03-14T07:56:41.813Z,7.50
2018-03-14T07:59:09.995Z,7.60
2018-03-14T08:01:37.451Z,7.60
2018-03-14T08:04:05.056Z,7.60
2018-03-14T08:06:32.534Z,7.70
2018-03-14T08:09:00.162Z,7.70
2018-03-14T08:11:27.614Z,7.80
2018-03-14T08:13:55.238Z,7.80
2018-03-14T08:16:23.877Z,7.90
2018-03-14T08:18:51.523Z,7.90
2018-03-14T08:21:19.004Z,8.00
2018-03-14T08:23:46.478Z,8.00
2018-03-14T08:26:14.764Z,8.20
2018-03-14T08:28:42.489Z,8.20
2018-03-14T08:31:10.104Z,8.30
2018-03-14T08:33:37.574Z,8.30
2018-03-14T08:36:05.559Z,8.40
2018-03-14T08:38:33.025Z,8.40
2018-03-14T08:41:00.687Z,8.30
2018-03-14T08:43:28.559Z,8.30
2018-03-14T08:45:55.996Z,8.20
2018-03-14T08:48:23.783Z,8.10
2018-03-14T08:50:51.217Z,8.10
2018-03-14T08:53:18.689Z,8.10
2018-03-14T08:55:46.549Z,8.00
2018-03-14T08:58:13.962Z,8.10
2018-03-14T09:00:41.430Z,8.10
2018-03-14T09:03:08.883Z,8.10
2018-03-14T09:05:36.345Z,8.10
2018-03-14T09:08:03.946Z,8.10
2018-03-14T09:10:32.935Z,8.30
2018-03-14T09:13:01.543Z,8.30
2018-03-14T09:15:29.821Z,8.60
2018-03-14T09:17:58.685Z,8.60
2018-03-14T09:20:26.199Z,8.60
2018-03-14T09:22:54.576Z,8.70
2018-03-14T09:25:22.050Z,8.80
2018-03-14T09:27:49.591Z,8.80
2018-03-14T09:30:17.050Z,8.80
2018-03-14T09:32:44.589Z,8.90
2018-03-14T09:35:12.409Z,8.90
2018-03-14T09:37:39.875Z,8.80
2018-03-14T09:40:07.899Z,8.70
2018-03-14T09:42:35.354Z,8.60
2018-03-14T09:45:02.924Z,8.40
2018-03-14T09:47:32.011Z,8.30
2018-03-14T09:49:59.716Z,8.10
2018-03-14T09:52:27.210Z,8.00
2018-03-14T09:54:54.705Z,8.00
2018-03-14T09:57:22.750Z,8.10
2018-03-14T09:59:50.213Z,8.10
2018-03-14T10:02:18.180Z,8.20
2018-03-14T10:04:45.632Z,8.30
2018-03-14T10:07:14.034Z,8.40
2018-03-14T10:09:41.508Z,8.40
2018-03-14T10:12:09.290Z,8.50
2018-03-14T10:14:36.730Z,8.60
2018-03-14T10:17:04.205Z,8.60
2018-03-14T10:19:31.957Z,8.60
2018-03-14T10:21:59.424Z,8.70
2018-03-14T10:24:26.884Z,8.70
2018-03-14T10:26:55.541Z,8.90
2018-03-14T10:29:24.225Z,8.90
2018-03-14T10:31:51.660Z,9.00
2018-03-14T10:34:19.133Z,9.00
2018-03-14T10:36:47.002Z,9.10
2018-03-14T10:39:14.512Z,9.20
2018-03-14T10:41:42.361Z,9.20
2018-03-14T10:44:10.573Z,9.30
2018-03-14T10:46:38.039Z,9.20
2018-03-14T10:49:06.025Z,9.20
2018-03-14T10:51:33.490Z,9.20
2018-03-14T10:54:00.926Z,9.10
2018-03-14T10:56:28.806Z,9.10
2018-03-14T10:58:56.249Z,9.10
2018-03-14T11:01:23.710Z,9.20
2018-03-14T11:03:51.932Z,9.20
2018-03-14T11:06:20.473Z,9.30
2018-03-14T11:08:47.937Z,9.20
2018-03-14T11:11:15.424Z,9.30
2018-03-14T11:13:43.639Z,9.30
2018-03-14T11:16:11.160Z,9.30
2018-03-14T11:18:40.153Z,9.40
2018-03-14T11:21:08.357Z,9.40
2018-03-14T11:23:35.848Z,9.40
2018-03-14T11:26:03.441Z,9.40
2018-03-14T11:28:31.680Z,9.50
2018-03-14T11:30:59.109Z,9.50
2018-03-14T11:33:26.621Z,9.60
2018-03-14T11:39:01.645Z,9.50
2018-03-14T11:47:18.099Z,9.60
2018-03-14T11:49:46.362Z,9.60
2018-03-14T11:52:13.807Z,9.50
2018-03-14T11:54:41.352Z,9.50
2018-03-14T11:57:09.083Z,9.60
2018-03-14T11:59:36.819Z,9.60
2018-03-14T12:02:04.262Z,9.70
2018-03-14T12:04:31.812Z,9.80
2018-03-14T12:06:59.254Z,9.80
2018-03-14T12:09:26.782Z,9.90
2018-03-14T12:11:54.505Z,10.00
2018-03-14T12:14:21.941Z,10.10
2018-03-14T12:16:49.734Z,10.20
2018-03-14T12:19:32.782Z,10.30
2018-03-14T12:22:01.110Z,10.30
2018-03-14T12:24:28.658Z,10.30
2018-03-14T12:26:56.195Z,10.40
2018-03-14T12:29:23.668Z,10.40
2018-03-14T12:31:51.105Z,10.50
2018-03-14T12:34:18.574Z,10.70
2018-03-14T12:36:46.716Z,10.90
2018-03-14T12:39:14.164Z,11.20
2018-03-14T12:41:42.408Z,11.90
2018-03-14T12:44:11.101Z,11.90
2018-03-14T12:46:38.577Z,12.30
2018-03-14T12:49:06.787Z,12.90
2018-03-14T12:51:34.252Z,12.80
2018-03-14T12:54:01.720Z,13.00
2018-03-14T12:56:29.429Z,13.20
2018-03-14T12:58:57.647Z,13.40
2018-03-14T13:01:25.130Z,13.40
2018-03-14T13:03:52.580Z,13.60
2018-03-14T13:06:20.264Z,13.90
2018-03-14T13:08:47.700Z,14.20
2018-03-14T13:11:15.666Z,14.50
2018-03-14T13:13:43.121Z,14.90
2018-03-14T13:16:10.572Z,15.20
2018-03-14T13:18:38.453Z,15.50
2018-03-14T13:21:06.473Z,15.70
2018-03-14T13:23:33.942Z,15.70
2018-03-14T13:26:01.477Z,15.50
2018-03-14T13:28:29.704Z,14.90
2018-03-14T13:30:57.161Z,14.90
2018-03-14T13:33:24.833Z,14.60
2018-03-14T13:35:52.592Z,14.20
2018-03-14T13:38:20.154Z,14.00
2018-03-14T13:40:47.665Z,13.80
2018-03-14T13:43:15.084Z,13.80
2018-03-14T13:45:43.658Z,14.10
2018-03-14T13:48:11.480Z,14.00
2018-03-14T13:50:38.920Z,14.30
2018-03-14T13:53:09.778Z,14.70
2018-03-14T13:55:37.860Z,15.00
2018-03-14T13:58:05.360Z,15.30
2018-03-14T14:00:33.564Z,15.90
2018-03-14T14:03:01.173Z,15.90
2018-03-14T14:05:28.622Z,16.20
2018-03-14T14:07:56.285Z,16.40
2018-03-14T14:10:24.158Z,16.50
2018-03-14T14:12:51.810Z,16.60
2018-03-14T14:15:19.287Z,16.80
2018-03-14T14:17:47.224Z,16.90
2018-03-14T14:20:15.098Z,17.00
2018-03-14T14:22:42.548Z,17.10
2018-03-14T14:25:10.120Z,17.10
2018-03-14T14:27:37.560Z,17.10
2018-03-14T14:30:05.031Z,17.20
2018-03-14T14:32:32.473Z,17.30
2018-03-14T14:35:00.364Z,17.30
2018-03-14T14:37:28.630Z,17.40
2018-03-14T14:39:56.100Z,17.40
2018-03-14T14:42:24.037Z,17.50
2018-03-14T14:44:51.501Z,17.50
2018-03-14T14:47:18.946Z,17.50
2018-03-14T14:49:46.402Z,17.50
2018-03-14T14:52:13.846Z,17.50
2018-03-14T14:54:41.320Z,17.50
2018-03-14T14:57:09.113Z,17.50
2018-03-14T14:59:36.600Z,17.50
2018-03-14T15:02:04.056Z,17.50
2018-03-14T15:04:31.712Z,17.60
2018-03-14T15:06:59.989Z,17.60
2018-03-14T15:09:28.697Z,17.60
2018-03-14T15:11:56.607Z,17.60
2018-03-14T15:14:24.038Z,17.50
2018-03-14T15:16:51.511Z,17.50
2018-03-14T15:19:18.947Z,17.50
2018-03-14T15:21:46.834Z,17.50
2018-03-14T15:24:14.308Z,17.40
2018-03-14T15:26:42.608Z,17.40
2018-03-14T15:29:10.812Z,17.30
2018-03-14T15:31:38.611Z,17.30
2018-03-14T15:34:06.131Z,17.40
2018-03-14T15:36:33.965Z,17.40
2018-03-14T15:39:01.888Z,17.40
2018-03-14T15:41:29.352Z,17.40
2018-03-14T15:43:56.784Z,17.40
2018-03-14T15:46:24.273Z,17.30
2018-03-14T15:48:51.709Z,17.40
2018-03-14T15:51:19.182Z,17.40
2018-03-14T15:53:46.625Z,17.40
2018-03-14T15:56:14.497Z,17.40
2018-03-14T15:58:42.034Z,17.30
2018-03-14T16:01:10.235Z,17.30
2018-03-14T16:03:37.673Z,17.30
2018-03-14T16:06:05.493Z,17.20
2018-03-14T16:08:33.830Z,17.10
2018-03-14T16:11:02.017Z,17.10
2018-03-14T16:13:29.450Z,17.10
2018-03-14T16:15:56.989Z,17.00
2018-03-14T16:18:26.334Z,16.80
2018-03-14T16:20:55.105Z,16.80
2018-03-14T16:23:22.781Z,16.70
2018-03-14T16:25:50.434Z,16.60
2018-03-14T16:28:17.948Z,16.50
2018-03-14T16:30:45.347Z,16.40
2018-03-14T16:33:12.888Z,16.30
2018-03-14T16:35:40.885Z,16.20
2018-03-14T16:38:09.130Z,15.90
2018-03-14T16:40:36.581Z,15.80
2018-03-14T16:43:04.464Z,15.70
2018-03-14T16:45:31.920Z,15.60
2018-03-14T16:47:59.485Z,15.40
2018-03-14T16:50:27.969Z,15.30
2018-03-14T16:52:55.426Z,15.10
2018-03-14T16:55:23.329Z,14.90
2018-03-14T16:57:51.529Z,14.50
2018-03-14T17:00:20.053Z,14.50
2018-03-14T17:02:47.508Z,14.30
2018-03-14T17:05:14.966Z,14.10
2018-03-14T17:07:42.408Z,14.00
2018-03-14T17:10:10.992Z,13.80
2018-03-14T17:12:40.085Z,13.60
2018-03-14T17:15:09.811Z,13.40
2018-03-14T17:17:37.260Z,13.30
2018-03-14T17:20:06.366Z,13.10
2018-03-14T17:22:34.134Z,13.00
2018-03-14T17:25:02.383Z,12.70
2018-03-14T17:27:30.260Z,12.70
2018-03-14T17:29:57.816Z,12.60
2018-03-14T17:32:25.583Z,12.50
2018-03-14T17:34:53.653Z,12.40
2018-03-14T17:37:21.098Z,12.30
2018-03-14T17:39:49.038Z,12.20
2018-03-14T17:42:16.497Z,12.10
2018-03-14T17:44:43.992Z,12.00
2018-03-14T17:47:11.430Z,11.90
2018-03-14T17:49:39.225Z,11.90
2018-03-14T17:52:06.906Z,11.70
2018-03-14T17:54:35.143Z,11.60
2018-03-14T17:57:03.521Z,11.60
2018-03-14T17:59:30.956Z,11.60
2018-03-14T18:01:58.415Z,11.50
2018-03-14T18:04:26.578Z,11.40
2018-03-14T18:06:54.064Z,11.40
2018-03-14T18:09:21.508Z,11.30
2018-03-14T18:11:49.647Z,11.30
2018-03-14T18:14:17.092Z,11.30
2018-03-14T18:16:44.817Z,11.20
2018-03-14T18:19:12.310Z,11.20
2018-03-14T18:21:40.189Z,11.20
2018-03-14T18:24:08.224Z,11.10
2018-03-14T18:26:36.173Z,11.00
2018-03-14T18:29:03.632Z,10.90
2018-03-14T18:31:32.305Z,10.90
2018-03-14T18:34:00.288Z,10.80
2018-03-14T18:36:28.053Z,10.70
2018-03-14T18:38:55.570Z,10.70
2018-03-14T18:41:23.128Z,10.60
2018-03-14T18:43:50.582Z,10.60
2018-03-14T18:46:18.276Z,10.60
2018-03-14T18:48:45.794Z,10.50
2018-03-14T18:51:13.277Z,10.50
2018-03-14T18:53:40.743Z,10.50
2018-03-14T18:56:08.685Z,10.40
2018-03-14T18:58:36.186Z,10.40
2018-03-14T19:01:03.625Z,10.30
2018-03-14T19:03:31.393Z,10.30
2018-03-14T19:05:59.210Z,10.30
2018-03-14T19:08:26.653Z,10.20
2018-03-14T19:10:55.267Z,10.10
2018-03-14T19:13:24.194Z,10.10
2018-03-14T19:15:52.172Z,10.10
2018-03-14T19:18:19.637Z,10.10
2018-03-14T19:20:47.086Z,10.10
2018-03-14T19:23:15.028Z,10.10
2018-03-14T19:25:42.841Z,10.00
2018-03-14T19:28:11.099Z,9.90
2018-03-14T19:30:39.782Z,9.90
2018-03-14T19:33:08.004Z,9.90
2018-03-14T19:35:35.770Z,9.90
2018-03-14T19:38:03.214Z,9.80
2018-03-14T19:40:30.698Z,9.80
2018-03-14T19:42:58.132Z,9.80
2018-03-14T19:45:25.642Z,9.80
2018-03-14T19:47:53.134Z,9.80
2018-03-14T19:50:20.602Z,9.80
2018-03-14T19:52:48.036Z,9.70
2018-03-14T19:55:16.586Z,9.60
2018-03-14T19:57:44.344Z,9.60
2018-03-14T20:00:11.816Z,9.60
2018-03-14T20:02:41.102Z,9.50
2018-03-14T20:05:09.068Z,9.50
2018-03-14T20:07:38.460Z,9.40
2018-03-14T20:10:06.552Z,9.40
2018-03-14T20:12:34.533Z,9.40
2018-03-14T20:15:02.160Z,9.40
2018-03-14T20:17:29.937Z,9.30
2018-03-14T20:19:57.521Z,9.30
2018-03-14T20:22:25.278Z,9.30
2018-03-14T20:24:53.247Z,9.20
2018-03-14T20:27:21.266Z,9.20
2018-03-14T20:29:48.982Z,9.20
2018-03-14T20:32:17.132Z,9.20
2018-03-14T20:34:45.617Z,9.10
2018-03-14T20:37:13.074Z,9.10
2018-03-14T20:39:40.841Z,9.10
2018-03-14T20:42:08.298Z,9.00
2018-03-14T20:44:37.294Z,9.00
2018-03-14T20:47:04.784Z,9.00
2018-03-14T20:49:32.222Z,9.00
2018-03-14T20:52:00.498Z,8.90
2018-03-14T20:54:27.924Z,8.90
2018-03-14T20:56:55.700Z,8.90
2018-03-14T20:59:23.562Z,8.80
2018-03-14T21:01:51.009Z,8.80
2018-03-14T21:04:18.913Z,8.70
2018-03-14T21:06:47.155Z,8.60
2018-03-14T21:09:15.030Z,8.60
2018-03-14T21:11:43.499Z,8.60
2018-03-14T21:14:11.146Z,8.60
2018-03-14T21:16:38.674Z,8.60
2018-03-14T21:19:06.179Z,8.50
2018-03-14T21:21:34.523Z,8.50
2018-03-14T21:24:02.403Z,8.50
2018-03-14T21:26:29.972Z,8.40
2018-03-14T21:28:57.414Z,8.40
2018-03-14T21:31:25.232Z,8.40
2018-03-14T21:33:53.446Z,8.40
2018-03-14T21:36:21.237Z,8.40
2018-03-14T21:38:48.678Z,8.40
2018-03-14T21:41:16.561Z,8.40
2018-03-14T21:43:44.065Z,8.30
2018-03-14T21:46:11.935Z,8.30
2018-03-14T21:48:39.452Z,8.20
2018-03-14T21:51:06.964Z,8.20
2018-03-14T21:53:34.333Z,8.10
2018-03-14T21:56:02.121Z,8.10
2018-03-14T21:58:29.597Z,8.10
2018-03-14T22:00:57.111Z,8.10
2018-03-14T22:03:25.101Z,8.00
2018-03-14T22:05:53.007Z,8.00
2018-03-14T22:08:21.235Z,8.00
2018-03-14T22:10:49.113Z,8.00
2018-03-14T22:13:16.551Z,8.00
2018-03-14T22:15:44.000Z,7.90
2018-03-14T22:18:11.696Z,7.90
2018-03-14T22:20:39.146Z,7.90
2018-03-14T22:23:07.109Z,7.90
2018-03-14T22:25:35.048Z,7.80
2018-03-14T22:28:04.074Z,7.90
2018-03-14T22:30:33.114Z,7.80
2018-03-14T22:33:01.315Z,7.80
2018-03-14T22:35:29.349Z,7.80
2018-03-14T22:37:57.545Z,7.80
2018-03-14T22:40:25.011Z,7.70
2018-03-14T22:42:52.488Z,7.70
2018-03-14T22:45:19.961Z,7.70
2018-03-14T22:47:48.028Z,7.70
2018-03-14T22:50:15.997Z,7.60
2018-03-14T22:52:43.469Z,7.60
2018-03-14T22:55:12.487Z,7.50
2018-03-14T22:57:40.816Z,7.50
2018-03-14T23:00:08.588Z,7.50
2018-03-14T23:02:36.098Z,7.40
2018-03-14T23:05:04.628Z,7.40
2018-03-14T23:07:32.146Z,7.40
2018-03-14T23:10:00.790Z,7.40
2018-03-14T23:12:28.246Z,7.30
2018-03-14T23:14:55.702Z,7.30
2018-03-14T23:17:23.159Z,7.30
2018-03-14T23:19:51.002Z,7.30
2018-03-14T23:22:18.669Z,7.30
2018-03-14T23:24:46.547Z,7.30
2018-03-14T23:27:14.010Z,7.20
2018-03-14T23:29:41.478Z,7.20
2018-03-14T23:32:09.914Z,7.10
2018-03-14T23:34:37.793Z,7.20
2018-03-14T23:37:05.239Z,7.20
2018-03-14T23:39:32.709Z,7.10
2018-03-14T23:42:00.224Z,7.10
2018-03-14T23:44:28.196Z,7.00
2018-03-14T23:46:55.646Z,7.00
2018-03-14T23:49:23.144Z,7.00
2018-03-14T23:51:51.103Z,7.00
2018-03-14T23:54:18.972Z,6.90
2018-03-14T23:56:47.560Z,6.90
2018-03-14T23:59:15.232Z,6.90
